Time;durP1;ratioP1;P1;durP2;ratioP2;P2;SDS_P1;SDS_P2;PMS_P1;PMS_P2;Temp;Humidity;BMP_temperature;BMP_pressure;BME280_temperature;BME280_humidity;BME280_pressure;Samples;Min_cycle;Max_cycle;Signal;HPM_P1;HPM_P2
2021/11/09 00:01:13;;;;;;;3.13;1.02;;;24.70;98.80;;;;;;5078473;28;20039;-71
2021/11/09 00:03:50;;;;;;;4.95;1.38;;;24.50;99.90;;;;;;5080448;28;20047;-71
2021/11/09 00:08:53;;;;;;;7.47;1.20;;;24.80;99.80;;;;;;5074948;28;20024;-71
2021/11/09 00:11:21;;;;;;;3.58;1.33;;;25.10;99.70;;;;;;5075747;28;20516;-71
2021/11/09 00:13:49;;;;;;;2.30;1.23;;;25.50;98.40;;;;;;5077151;28;20024;-72
2021/11/09 00:16:16;;;;;;;5.28;1.42;;;25.80;98.30;;;;;;5077410;28;20037;-72
2021/11/09 00:18:45;;;;;;;7.32;1.40;;;25.40;98.20;;;;;;5077380;28;20012;-71
2021/11/09 00:21:13;;;;;;;3.08;1.08;;;25.20;99.10;;;;;;5078155;28;20040;-71
2021/11/09 00:23:41;;;;;;;2.53;0.90;;;24.80;99.30;;;;;;5076732;28;20028;-72
2021/11/09 00:26:09;;;;;;;4.70;1.55;;;24.60;99.90;;;;;;5074336;28;20528;-72
2021/11/09 00:28:36;;;;;;;1.90;0.82;;;24.50;99.90;;;;;;5077315;28;20144;-72
2021/11/09 00:31:04;;;;;;;4.10;0.98;;;24.60;99.90;;;;;;5082508;28;20031;-72
2021/11/09 00:33:31;;;;;;;4.60;1.35;;;25.20;99.50;;;;;;5075769;28;20079;-73
2021/11/09 00:35:59;;;;;;;1.92;1.15;;;25.70;98.20;;;;;;5076369;28;20032;-73
2021/11/09 00:38:26;;;;;;;5.22;1.98;;;26.30;97.10;;;;;;5075727;28;20425;-72
2021/11/09 00:40:56;;;;;;;2.65;1.10;;;26.90;96.90;;;;;;5077980;28;20052;-72
2021/11/09 00:43:24;;;;;;;5.32;2.00;;;27.20;95.40;;;;;;5059535;28;20034;-71
2021/11/09 00:45:51;;;;;;;4.68;1.20;;;27.50;95.60;;;;;;5078305;28;20051;-72
2021/11/09 00:48:19;;;;;;;4.38;1.85;;;27.60;95.70;;;;;;5077541;28;20051;-71
2021/11/09 00:50:49;;;;;;;2.65;0.93;;;27.60;95.50;;;;;;5078520;28;20036;-74
2021/11/09 00:53:18;;;;;;;3.63;1.20;;;27.20;95.80;;;;;;5078035;28;20012;-73
2021/11/09 00:55:47;;;;;;;2.53;0.90;;;27.00;95.70;;;;;;5081980;28;20032;-73
2021/11/09 00:58:15;;;;;;;3.88;1.20;;;27.30;96.30;;;;;;5079528;28;20035;-74
2021/11/09 01:00:44;;;;;;;3.40;1.52;;;27.90;95.60;;;;;;5076158;28;20078;-73
2021/11/09 01:03:13;;;;;;;3.03;1.10;;;28.20;93.70;;;;;;5077173;28;20021;-74
2021/11/09 01:05:41;;;;;;;3.10;1.08;;;27.90;94.20;;;;;;5076077;28;20115;-74
2021/11/09 01:08:13;;;;;;;5.03;1.65;;;27.90;93.80;;;;;;5081450;28;20056;-72
2021/11/09 01:10:45;;;;;;;2.60;1.20;;;27.90;94.20;;;;;;5080027;28;20078;-75
2021/11/09 01:13:14;;;;;;;4.40;1.33;;;28.00;93.80;;;;;;5083119;28;20716;-72
2021/11/09 01:15:48;;;;;;;5.20;1.30;;;27.80;94.50;;;;;;5082419;28;20028;-73
2021/11/09 01:18:22;;;;;;;5.75;1.48;;;27.60;94.40;;;;;;5081796;28;20024;-74
2021/11/09 01:20:50;;;;;;;3.53;1.08;;;27.40;94.20;;;;;;5062455;28;20039;-73
2021/11/09 01:23:18;;;;;;;2.10;1.40;;;27.30;94.20;;;;;;5081429;28;20023;-71
2021/11/09 01:25:45;;;;;;;3.60;1.17;;;27.80;94.80;;;;;;5078785;28;20020;-73
2021/11/09 01:28:13;;;;;;;6.90;1.77;;;28.70;94.20;;;;;;5079706;28;20032;-74
2021/11/09 01:30:42;;;;;;;3.03;1.15;;;29.60;93.50;;;;;;5077732;28;20487;-77
2021/11/09 01:33:10;;;;;;;2.60;0.90;;;29.90;92.90;;;;;;5080782;28;20061;-75
2021/11/09 01:35:38;;;;;;;3.10;1.15;;;29.40;91.60;;;;;;5077117;28;20559;-74
2021/11/09 01:38:06;;;;;;;4.63;1.42;;;28.70;91.80;;;;;;5080944;28;20032;-75
2021/11/09 01:40:35;;;;;;;1.73;1.00;;;28.30;92.50;;;;;;5079808;28;20118;-75
2021/11/09 01:43:03;;;;;;;4.43;1.45;;;28.30;92.60;;;;;;5078662;28;20037;-74
2021/11/09 01:45:32;;;;;;;3.75;1.50;;;28.30;92.30;;;;;;5078177;28;20023;-75
2021/11/09 01:48:00;;;;;;;3.58;1.10;;;28.20;91.30;;;;;;5087041;28;20027;-74
2021/11/09 01:50:35;;;;;;;9.07;2.28;;;28.50;92.30;;;;;;5080769;28;20163;-74
2021/11/09 01:53:02;;;;;;;4.05;1.50;;;29.00;91.60;;;;;;5087410;28;20023;-73
2021/11/09 01:55:31;;;;;;;6.20;1.40;;;29.10;91.60;;;;;;5081023;28;20063;-75
2021/11/09 01:57:59;;;;;;;2.97;1.23;;;29.30;90.40;;;;;;5083576;28;20080;-74
2021/11/09 02:00:35;;;;;;;6.03;2.22;;;29.30;91.20;;;;;;5081229;28;20027;-74
2021/11/09 02:03:04;;;;;;;2.35;1.50;;;29.50;89.90;;;;;;5084098;28;20032;-75
2021/11/09 02:05:31;;;;;;;3.85;1.40;;;29.70;90.10;;;;;;5082487;28;20028;-76
2021/11/09 02:08:02;;;;;;;2.08;1.25;;;29.70;86.90;;;;;;5084960;28;20031;-76
2021/11/09 02:10:32;;;;;;;3.38;1.15;;;30.00;87.60;;;;;;5079285;28;20048;-74
2021/11/09 02:13:00;;;;;;;5.03;1.55;;;30.60;92.00;;;;;;5080203;28;20024;-74
2021/11/09 02:15:30;;;;;;;3.92;1.80;;;31.30;89.00;;;;;;5085321;28;20036;-76
2021/11/09 02:17:59;;;;;;;5.22;1.00;;;31.40;86.30;;;;;;5078577;28;20498;-75
2021/11/09 02:20:29;;;;;;;6.82;2.05;;;30.80;85.80;;;;;;5079133;28;20027;-74
2021/11/09 02:22:58;;;;;;;2.30;1.63;;;30.20;88.70;;;;;;5080479;28;20036;-75
2021/11/09 02:25:28;;;;;;;4.22;2.10;;;29.70;87.80;;;;;;5079888;28;20023;-75
2021/11/09 02:27:56;;;;;;;8.25;1.48;;;29.40;87.80;;;;;;5083218;28;20499;-76
2021/11/09 02:30:26;;;;;;;4.43;1.83;;;29.30;88.80;;;;;;5079034;28;20047;-73
2021/11/09 02:32:55;;;;;;;4.03;1.42;;;29.20;89.30;;;;;;5080101;28;20515;-72
2021/11/09 02:35:23;;;;;;;4.00;2.50;;;29.20;89.60;;;;;;5079813;28;20028;-72
2021/11/09 02:37:52;;;;;;;3.10;2.15;;;29.70;88.40;;;;;;5084925;28;20020;-74
2021/11/09 02:40:20;;;;;;;4.30;2.20;;;30.20;89.50;;;;;;5080910;28;20032;-73
2021/11/09 02:42:51;;;;;;;2.05;1.35;;;30.10;86.40;;;;;;5079437;28;20027;-75
2021/11/09 02:45:27;;;;;;;3.97;1.55;;;29.90;87.90;;;;;;5078977;28;20391;-73
2021/11/09 02:48:01;;;;;;;1.85;1.25;;;29.80;89.00;;;;;;5080274;28;20118;-73
2021/11/09 02:50:34;;;;;;;3.40;1.45;;;30.00;87.20;;;;;;5077681;28;20119;-73
2021/11/09 02:53:07;;;;;;;2.50;1.40;;;29.90;85.40;;;;;;5083285;28;20024;-72
2021/11/09 02:55:41;;;;;;;3.13;1.60;;;29.80;84.80;;;;;;5077440;28;20031;-75
2021/11/09 03:01:01;;;;;;;4.85;1.33;;;29.40;86.20;;;;;;5076815;28;20119;-75
2021/11/09 03:04:36;;;;;;;3.85;1.48;;;29.00;87.40;;;;;;5085171;28;20026;-73
2021/11/09 03:06:30;;;;;;;3.00;1.10;;;28.60;88.00;;;;;;5061045;28;20044;-72
2021/11/09 03:09:07;;;;;;;3.88;1.83;;;28.20;88.60;;;;;;5082602;28;20054;-73
2021/11/09 03:11:37;;;;;;;4.40;1.60;;;28.10;89.20;;;;;;5075289;28;20016;-73
2021/11/09 03:14:05;;;;;;;4.07;1.88;;;27.90;90.20;;;;;;5077442;28;20016;-74
2021/11/09 03:16:36;;;;;;;3.90;1.33;;;27.90;90.70;;;;;;5075929;28;20166;-74
2021/11/09 03:44:21;;;;;;;4.10;1.67;;;29.40;88.50;;;;;;5081749;28;20007;-75
2021/11/09 03:47:03;;;;;;;5.85;2.00;;;29.90;90.00;;;;;;5077406;28;20107;-73
2021/11/09 03:49:33;;;;;;;6.18;1.30;;;30.00;89.30;;;;;;5082609;28;20028;-73
2021/11/09 03:52:07;;;;;;;5.10;2.05;;;30.20;90.00;;;;;;5079913;28;20110;-74
2021/11/09 03:54:35;;;;;;;3.83;1.50;;;30.20;87.10;;;;;;5080740;28;20722;-75
2021/11/09 03:57:16;;;;;;;5.63;1.67;;;30.20;87.50;;;;;;5079905;28;20043;-75
2021/11/09 04:07:14;;;;;;;4.55;1.55;;;29.90;86.40;;;;;;5081434;28;20028;-75
2021/11/09 04:10:30;;;;;;;6.28;1.15;;;29.80;87.90;;;;;;5060956;28;20479;-76
2021/11/09 04:12:54;;;;;;;7.47;2.70;;;29.80;88.20;;;;;;5066186;28;20414;-74
2021/11/09 04:18:07;;;;;;;3.80;1.25;;;29.90;88.20;;;;;;5083809;28;20101;-73
2021/11/09 04:20:56;;;;;;;7.60;2.63;;;29.90;87.50;;;;;;5083112;28;20044;-74
2021/11/09 04:31:41;;;;;;;3.80;1.23;;;30.10;88.00;;;;;;5077497;28;20024;-73
2021/11/09 04:53:34;;;;;;;7.28;1.40;;;29.50;89.00;;;;;;5087530;28;20021;-76
2021/11/09 05:11:46;;;;;;;4.00;1.00;;;29.40;90.10;;;;;;5079443;28;20032;-75
2021/11/09 05:14:14;;;;;;;5.20;1.88;;;29.30;89.90;;;;;;5072419;28;20039;-74
2021/11/09 05:16:43;;;;;;;6.60;1.45;;;29.40;90.00;;;;;;5080836;28;20031;-73
2021/11/09 05:19:11;;;;;;;5.80;1.63;;;29.30;90.10;;;;;;5077631;28;20032;-74
2021/11/09 05:21:40;;;;;;;4.70;1.40;;;29.20;90.20;;;;;;5080121;28;20036;-75
2021/11/09 05:24:09;;;;;;;3.80;1.30;;;29.00;90.20;;;;;;5082061;28;20123;-75
2021/11/09 05:26:41;;;;;;;3.47;1.27;;;29.00;90.10;;;;;;5081980;28;20030;-77
2021/11/09 05:29:10;;;;;;;4.88;1.80;;;28.50;90.70;;;;;;5080991;28;20036;-75
2021/11/09 05:31:38;;;;;;;4.45;1.42;;;28.50;90.70;;;;;;5081586;28;20060;-74
2021/11/09 05:34:06;;;;;;;4.30;1.45;;;28.60;90.90;;;;;;5084783;28;20089;-75
2021/11/09 05:36:37;;;;;;;2.60;1.45;;;28.40;91.10;;;;;;5081055;28;20038;-75
2021/11/09 05:39:15;;;;;;;3.92;1.00;;;28.40;91.20;;;;;;5080816;28;20031;-75
2021/11/09 05:41:44;;;;;;;5.55;1.08;;;28.40;91.40;;;;;;5084374;28;20030;-73
2021/11/09 05:44:12;;;;;;;3.42;1.17;;;28.40;91.30;;;;;;5081695;28;20130;-75
2021/11/09 05:46:40;;;;;;;3.53;1.25;;;28.20;91.30;;;;;;5081833;28;20020;-76
2021/11/09 05:49:08;;;;;;;3.83;1.08;;;28.10;91.50;;;;;;5079993;28;20044;-76
2021/11/09 05:51:36;;;;;;;3.95;1.13;;;28.00;92.10;;;;;;5082223;28;20489;-75
2021/11/09 05:54:05;;;;;;;5.20;1.15;;;27.80;92.20;;;;;;5076084;28;20666;-74
2021/11/09 05:56:32;;;;;;;4.35;1.50;;;27.90;92.60;;;;;;5083605;28;20425;-75
2021/11/09 05:59:00;;;;;;;3.28;1.05;;;28.00;92.10;;;;;;5081757;28;20069;-74
2021/11/09 06:01:28;;;;;;;3.25;1.50;;;27.90;92.20;;;;;;5080614;28;20040;-76
2021/11/09 06:03:56;;;;;;;7.15;1.48;;;27.70;92.40;;;;;;5083567;28;20048;-74
2021/11/09 06:06:23;;;;;;;7.15;1.35;;;27.60;92.50;;;;;;5082073;28;20090;-77
2021/11/09 06:08:50;;;;;;;4.88;1.88;;;27.50;92.70;;;;;;5081477;28;20028;-75
2021/11/09 06:11:18;;;;;;;9.35;1.95;;;27.60;92.60;;;;;;5082954;28;20391;-74
2021/11/09 06:13:46;;;;;;;4.28;0.82;;;27.50;92.30;;;;;;5076159;28;20976;-74
2021/11/09 06:16:15;;;;;;;7.38;1.77;;;27.40;92.90;;;;;;5084017;28;20081;-73
2021/11/09 06:18:42;;;;;;;3.20;0.90;;;27.20;93.10;;;;;;5078062;28;20039;-74
2021/11/09 06:21:10;;;;;;;4.78;1.08;;;27.30;93.20;;;;;;5090592;28;20016;-74
2021/11/09 06:23:37;;;;;;;4.65;1.52;;;27.20;93.00;;;;;;5085031;28;20122;-75
2021/11/09 06:26:05;;;;;;;10.15;1.27;;;27.10;93.30;;;;;;5080124;28;21057;-75
2021/11/09 06:28:33;;;;;;;3.45;0.68;;;27.00;93.70;;;;;;5080487;28;20117;-75
2021/11/09 06:31:00;;;;;;;8.40;1.38;;;26.90;94.10;;;;;;5078840;28;20051;-74
2021/11/09 06:33:30;;;;;;;2.75;1.30;;;26.90;94.10;;;;;;5081690;28;20407;-76
2021/11/09 06:35:59;;;;;;;4.20;1.20;;;26.70;94.10;;;;;;5083189;28;20176;-75
2021/11/09 06:38:26;;;;;;;3.33;1.08;;;26.70;94.40;;;;;;5063806;28;20030;-75
2021/11/09 06:40:54;;;;;;;6.10;2.25;;;26.60;94.50;;;;;;5087466;28;20498;-76
2021/11/09 06:43:21;;;;;;;5.70;1.15;;;26.50;94.50;;;;;;5080064;28;20041;-72
2021/11/09 06:45:49;;;;;;;3.10;0.80;;;26.40;94.80;;;;;;5074679;28;20450;-72
2021/11/09 06:48:18;;;;;;;5.78;1.27;;;26.30;94.90;;;;;;5081011;28;20536;-73
2021/11/09 06:50:46;;;;;;;2.53;0.85;;;26.20;95.40;;;;;;5059178;28;20040;-73
2021/11/09 06:53:13;;;;;;;3.33;1.23;;;26.00;95.40;;;;;;5079088;28;20432;-73
2021/11/09 06:55:41;;;;;;;3.47;1.45;;;25.80;95.80;;;;;;5079426;28;20032;-75
2021/11/09 06:58:08;;;;;;;6.78;2.45;;;25.60;96.10;;;;;;5078056;28;20433;-74
2021/11/09 07:00:37;;;;;;;3.47;1.02;;;25.70;96.30;;;;;;5077842;28;20032;-73
2021/11/09 07:03:04;;;;;;;3.00;0.93;;;25.70;96.20;;;;;;5075918;28;20023;-73
2021/11/09 07:05:32;;;;;;;6.25;1.33;;;25.80;96.10;;;;;;5079078;28;20047;-74
2021/11/09 07:07:59;;;;;;;2.85;0.88;;;25.80;96.20;;;;;;5079669;28;20031;-75
2021/11/09 07:10:27;;;;;;;5.25;1.65;;;25.70;96.20;;;;;;5091772;28;20162;-75
2021/11/09 07:12:55;;;;;;;4.43;1.08;;;25.60;96.50;;;;;;5087233;28;20065;-75
2021/11/09 07:15:22;;;;;;;5.00;2.25;;;25.60;96.80;;;;;;5078239;28;20488;-72
2021/11/09 07:17:50;;;;;;;6.30;1.50;;;25.50;96.90;;;;;;5081964;28;20024;-74
2021/11/09 07:20:19;;;;;;;4.72;1.90;;;25.40;97.00;;;;;;5078337;28;20055;-75
2021/11/09 07:22:49;;;;;;;7.93;2.42;;;25.50;97.20;;;;;;5079854;28;20042;-74
2021/11/09 07:25:17;;;;;;;6.82;2.28;;;25.40;97.20;;;;;;5085006;28;20012;-74
2021/11/09 07:27:46;;;;;;;8.00;1.50;;;25.30;97.20;;;;;;5063458;28;20115;-75
2021/11/09 07:30:16;;;;;;;5.60;1.88;;;25.20;97.50;;;;;;5079222;28;20031;-74
2021/11/09 07:32:45;;;;;;;7.57;1.42;;;25.20;97.60;;;;;;5069269;28;20040;-76
2021/11/09 07:35:16;;;;;;;7.00;1.65;;;25.10;97.70;;;;;;5059701;28;20062;-75
2021/11/09 07:37:44;;;;;;;6.00;1.45;;;25.00;98.00;;;;;;5080551;28;20062;-75
2021/11/09 07:40:12;;;;;;;5.00;1.33;;;24.90;98.20;;;;;;5080406;28;20768;-75
2021/11/09 07:42:47;;;;;;;9.68;3.38;;;24.90;98.30;;;;;;5080469;28;20016;-73
2021/11/09 07:45:19;;;;;;;2.42;1.10;;;24.80;98.30;;;;;;5080477;28;20032;-71
2021/11/09 07:47:49;;;;;;;5.30;1.65;;;24.80;98.50;;;;;;5080870;28;20411;-72
2021/11/09 07:50:17;;;;;;;6.82;2.22;;;24.70;98.80;;;;;;5076037;28;20044;-72
2021/11/09 07:52:47;;;;;;;3.42;1.25;;;24.60;98.90;;;;;;5079215;28;20024;-72
2021/11/09 07:55:18;;;;;;;3.90;0.70;;;24.50;99.10;;;;;;5087790;28;20028;-74
2021/11/09 07:57:49;;;;;;;2.45;0.70;;;24.40;99.40;;;;;;5080681;28;20166;-73
2021/11/09 08:00:56;;;;;;;7.50;1.00;;;24.40;99.50;;;;;;5089331;28;20111;-73
2021/11/09 08:03:18;;;;;;;2.40;0.95;;;24.20;99.80;;;;;;5080267;28;20044;-73
2021/11/09 08:08:37;;;;;;;3.25;1.02;;;24.10;99.90;;;;;;5091713;28;20016;-73
2021/11/09 08:11:04;;;;;;;3.92;1.00;;;24.10;99.90;;;;;;5077700;28;20113;-73
2021/11/09 08:13:32;;;;;;;1.60;0.73;;;24.00;99.90;;;;;;5079855;28;20031;-74
2021/11/09 08:15:59;;;;;;;3.10;1.02;;;23.90;99.90;;;;;;5060633;28;20104;-74
2021/11/09 08:18:27;;;;;;;2.67;0.75;;;23.80;99.90;;;;;;5090923;28;20024;-74
2021/11/09 08:20:54;;;;;;;5.47;1.15;;;23.80;99.90;;;;;;5087118;28;20849;-73
2021/11/09 08:23:22;;;;;;;5.35;1.20;;;23.80;99.90;;;;;;5062202;28;20096;-74
2021/11/09 08:25:49;;;;;;;2.35;0.65;;;23.80;99.90;;;;;;5079592;28;20020;-73
2021/11/09 08:28:18;;;;;;;3.65;0.93;;;23.70;99.90;;;;;;5079334;28;20031;-74
2021/11/09 08:30:48;;;;;;;4.07;0.70;;;23.60;99.90;;;;;;5055852;28;20694;-75
2021/11/09 08:33:16;;;;;;;1.15;0.30;;;23.50;99.90;;;;;;5078371;28;20036;-74
2021/11/09 08:35:43;;;;;;;3.17;0.52;;;23.50;99.90;;;;;;5061061;28;20417;-75
2021/11/09 08:38:12;;;;;;;7.95;1.45;;;23.50;99.90;;;;;;5078388;28;20032;-74
2021/11/09 08:40:41;;;;;;;1.30;0.75;;;23.50;99.90;;;;;;5075789;28;20031;-73
2021/11/09 08:43:10;;;;;;;2.42;0.50;;;23.40;99.90;;;;;;5077124;28;20029;-73
2021/11/09 08:45:49;;;;;;;2.08;0.70;;;23.40;99.90;;;;;;5080225;28;20025;-74
2021/11/09 08:48:18;;;;;;;3.58;0.80;;;23.30;99.90;;;;;;5076383;28;20024;-74
2021/11/09 08:50:49;;;;;;;4.82;1.08;;;23.30;99.90;;;;;;5079306;28;20032;-74
2021/11/09 08:53:21;;;;;;;4.65;1.02;;;23.30;99.90;;;;;;5084301;28;20024;-74
2021/11/09 08:58:31;;;;;;;2.72;0.75;;;23.30;99.90;;;;;;5085204;28;20374;-74
2021/11/09 09:01:20;;;;;;;4.07;0.50;;;23.30;99.90;;;;;;5086985;28;20020;-74
2021/11/09 09:06:33;;;;;;;0.82;0.40;;;23.20;99.90;;;;;;5082823;28;20418;-75
2021/11/09 09:09:04;;;;;;;0.65;0.25;;;23.10;99.90;;;;;;5090322;28;20382;-77
2021/11/09 09:11:32;;;;;;;1.63;0.45;;;23.10;99.90;;;;;;5080321;28;20047;-75
2021/11/09 09:14:01;;;;;;;3.50;0.60;;;23.00;99.90;;;;;;5082640;28;20472;-73
2021/11/09 09:16:31;;;;;;;2.20;0.70;;;23.00;99.90;;;;;;5085627;28;20111;-73
2021/11/09 09:19:00;;;;;;;2.10;0.45;;;22.80;99.90;;;;;;5084232;28;20024;-72
2021/11/09 09:24:09;;;;;;;3.38;0.70;;;22.50;99.90;;;;;;5083157;28;20164;-73
2021/11/09 09:26:49;;;;;;;3.45;0.68;;;22.20;99.90;;;;;;5075029;28;20491;-73
2021/11/09 09:32:14;;;;;;;5.90;0.80;;;21.80;99.90;;;;;;5081222;28;20153;-74
2021/11/09 09:56:55;;;;;;;3.67;0.40;;;21.30;99.90;;;;;;5087820;28;20471;-73
2021/11/09 09:59:34;;;;;;;2.78;0.77;;;21.10;99.90;;;;;;5089965;28;20028;-72
2021/11/09 10:02:06;;;;;;;8.30;0.63;;;21.00;99.90;;;;;;5075009;28;20024;-73
2021/11/09 10:04:36;;;;;;;2.17;0.50;;;20.90;99.90;;;;;;5080035;28;20052;-73
2021/11/09 10:07:05;;;;;;;2.47;0.85;;;20.90;99.90;;;;;;5082797;28;20016;-73
2021/11/09 10:09:44;;;;;;;3.35;0.98;;;20.90;99.90;;;;;;5079416;28;20491;-73
2021/11/09 10:12:33;;;;;;;2.55;0.60;;;20.90;99.90;;;;;;5089225;28;20379;-74
2021/11/09 10:15:12;;;;;;;3.13;0.85;;;21.00;99.90;;;;;;5080496;28;20027;-73
2021/11/09 10:17:51;;;;;;;4.13;0.80;;;20.90;99.90;;;;;;5084159;28;20032;-73
2021/11/09 10:20:21;;;;;;;2.00;0.80;;;20.90;99.90;;;;;;5077901;28;20031;-73
2021/11/09 10:22:57;;;;;;;9.90;0.70;;;20.90;99.90;;;;;;5079122;28;20021;-73
2021/11/09 10:25:26;;;;;;;5.43;0.50;;;20.80;99.90;;;;;;5087955;28;20024;-73
2021/11/09 10:28:06;;;;;;;2.95;1.27;;;20.80;99.90;;;;;;5078275;28;20062;-72
2021/11/09 10:31:04;;;;;;;5.55;1.25;;;20.70;99.90;;;;;;5078411;28;20071;-74
2021/11/09 10:33:39;;;;;;;6.35;0.85;;;20.70;99.90;;;;;;5070447;28;20056;-73
2021/11/09 10:36:22;;;;;;;5.60;0.53;;;20.70;99.90;;;;;;5043267;28;20051;-74
2021/11/09 10:38:49;;;;;;;5.78;1.10;;;20.50;99.90;;;;;;5044997;28;20029;-73
2021/11/09 10:41:17;;;;;;;1.23;0.63;;;20.40;99.90;;;;;;5042181;28;20044;-73
2021/11/09 10:43:48;;;;;;;2.92;1.33;;;20.40;99.90;;;;;;5043719;28;20037;-73
2021/11/09 10:46:28;;;;;;;3.72;1.10;;;20.30;99.90;;;;;;5040803;28;20021;-74
2021/11/09 10:48:57;;;;;;;1.48;0.60;;;20.30;99.90;;;;;;5040340;28;20044;-74
2021/11/09 10:51:44;;;;;;;3.20;1.00;;;20.20;99.90;;;;;;5037603;28;20106;-73
2021/11/09 10:54:12;;;;;;;3.50;0.80;;;20.20;99.90;;;;;;5036863;28;20423;-73
2021/11/09 10:56:57;;;;;;;2.75;1.10;;;20.20;99.90;;;;;;5037170;28;20033;-73
2021/11/09 11:05:18;;;;;;;2.58;1.30;;;20.20;99.90;;;;;;5030198;28;20052;-74
2021/11/09 11:08:03;;;;;;;0.88;0.45;;;20.30;99.90;;;;;;5039414;28;20033;-74
2021/11/09 11:10:34;;;;;;;4.53;0.75;;;20.20;99.90;;;;;;5036182;28;20040;-72
2021/11/09 11:13:20;;;;;;;6.03;0.90;;;20.20;99.90;;;;;;5039525;28;20099;-73
2021/11/09 11:16:15;;;;;;;3.05;0.95;;;20.20;99.90;;;;;;5037044;28;20030;-73
2021/11/09 11:18:55;;;;;;;3.20;0.82;;;20.10;99.90;;;;;;5041488;28;20028;-73
2021/11/09 11:21:25;;;;;;;4.22;0.70;;;20.10;99.90;;;;;;5034191;28;20537;-75
2021/11/09 11:23:53;;;;;;;1.70;0.73;;;20.00;99.90;;;;;;5037161;28;20092;-73
2021/11/09 11:26:22;;;;;;;5.70;0.82;;;19.90;99.90;;;;;;5042589;28;20444;-74
2021/11/09 11:28:52;;;;;;;2.65;0.80;;;19.90;99.90;;;;;;5040720;28;20031;-74
2021/11/09 11:31:21;;;;;;;1.67;1.30;;;19.80;99.90;;;;;;5039658;28;20037;-74
2021/11/09 11:33:50;;;;;;;2.95;0.85;;;19.80;99.90;;;;;;5069961;28;20032;-74
2021/11/09 11:36:18;;;;;;;4.00;0.85;;;19.80;99.90;;;;;;5079669;28;20091;-74
2021/11/09 11:38:48;;;;;;;4.47;1.10;;;19.70;99.90;;;;;;5081679;28;20478;-73
2021/11/09 11:41:17;;;;;;;4.03;1.35;;;19.70;99.90;;;;;;5084796;28;20031;-74
2021/11/09 11:43:44;;;;;;;3.10;1.25;;;19.70;99.90;;;;;;5085965;28;20036;-74
2021/11/09 11:46:16;;;;;;;5.28;1.13;;;19.70;99.90;;;;;;5082345;28;20021;-74
2021/11/09 11:49:05;;;;;;;1.63;0.90;;;19.70;99.90;;;;;;5082216;28;20016;-74
2021/11/09 11:51:38;;;;;;;5.00;1.13;;;19.70;99.90;;;;;;5084611;28;20088;-74
2021/11/09 11:54:07;;;;;;;5.75;1.83;;;19.70;99.90;;;;;;5091108;28;20028;-73
2021/11/09 11:56:44;;;;;;;6.57;1.45;;;19.70;99.90;;;;;;5089845;28;20129;-74
2021/11/09 11:59:37;;;;;;;5.72;1.95;;;19.60;99.90;;;;;;5089468;28;20020;-74
2021/11/09 12:02:06;;;;;;;4.32;1.02;;;19.60;99.90;;;;;;5091410;28;20058;-75
2021/11/09 12:04:37;;;;;;;6.00;0.95;;;19.60;99.90;;;;;;5092599;28;20024;-74
2021/11/09 12:07:05;;;;;;;3.95;0.82;;;19.60;99.90;;;;;;5077378;28;20024;-75
2021/11/09 12:09:35;;;;;;;1.52;0.77;;;19.50;99.90;;;;;;5076024;28;20434;-75
2021/11/09 12:12:21;;;;;;;2.97;1.15;;;19.50;99.90;;;;;;5083514;28;20017;-73
2021/11/09 12:15:01;;;;;;;2.35;1.25;;;19.50;99.90;;;;;;5075865;28;20471;-74
2021/11/09 12:17:33;;;;;;;2.28;0.80;;;19.50;99.90;;;;;;5071597;28;20375;-74
2021/11/09 12:20:07;;;;;;;2.75;0.55;;;19.50;99.90;;;;;;5073341;28;20464;-77
2021/11/09 12:22:40;;;;;;;1.88;0.80;;;19.40;99.90;;;;;;5075584;28;20081;-75
2021/11/09 12:25:11;;;;;;;1.85;0.75;;;19.40;99.90;;;;;;5084284;28;20104;-73
2021/11/09 12:27:53;;;;;;;2.63;1.02;;;19.30;99.90;;;;;;5072959;28;20027;-72
2021/11/09 12:30:38;;;;;;;2.88;1.00;;;19.30;99.90;;;;;;5089485;28;20032;-73
2021/11/09 12:33:10;;;;;;;2.65;0.60;;;19.20;99.90;;;;;;5079478;28;20544;-72
2021/11/09 12:35:38;;;;;;;5.03;0.68;;;19.20;99.90;;;;;;5087465;28;20102;-72
2021/11/09 12:38:14;;;;;;;2.67;0.80;;;19.10;99.90;;;;;;5084339;28;20027;-72
2021/11/09 12:40:57;;;;;;;3.83;1.00;;;19.10;99.90;;;;;;5089862;28;20016;-72
2021/11/09 12:43:45;;;;;;;8.90;1.48;;;19.00;99.90;;;;;;5072656;28;20103;-72
2021/11/09 12:46:41;;;;;;;8.55;1.13;;;19.00;99.90;;;;;;5081502;28;20467;-75
2021/11/09 12:49:10;;;;;;;5.63;0.85;;;19.00;99.90;;;;;;5086034;28;20024;-73
2021/11/09 12:51:40;;;;;;;4.95;0.88;;;18.90;99.90;;;;;;5086155;28;20556;-74
2021/11/09 12:54:20;;;;;;;7.15;1.17;;;18.90;99.90;;;;;;5089070;28;20386;-73
2021/11/09 12:56:51;;;;;;;6.13;1.42;;;18.90;99.90;;;;;;5079931;28;20498;-74
2021/11/09 12:59:29;;;;;;;3.70;0.70;;;18.90;99.90;;;;;;5073145;28;20024;-72
2021/11/09 13:10:24;;;;;;;6.70;1.05;;;19.00;99.90;;;;;;5096197;28;20051;-73
2021/11/09 13:12:52;;;;;;;3.40;1.35;;;19.00;99.90;;;;;;5073525;28;20036;-74
2021/11/09 13:15:22;;;;;;;3.05;0.57;;;19.00;99.90;;;;;;5074884;28;20521;-74
2021/11/09 13:17:58;;;;;;;8.38;1.80;;;19.00;99.90;;;;;;5084538;28;20073;-73
2021/11/09 13:23:18;;;;;;;3.35;1.85;;;19.00;99.90;;;;;;5095725;28;20055;-73
2021/11/09 13:25:47;;;;;;;5.80;1.00;;;19.10;99.90;;;;;;5093966;28;20020;-72
2021/11/09 13:28:19;;;;;;;13.27;2.30;;;19.00;99.90;;;;;;5094717;28;20020;-73
2021/11/09 13:30:53;;;;;;;6.68;1.27;;;19.10;99.90;;;;;;5094203;28;20032;-73
2021/11/09 13:33:22;;;;;;;7.03;1.00;;;19.10;99.90;;;;;;5091784;28;20115;-73
2021/11/09 13:35:50;;;;;;;3.40;2.25;;;19.00;99.90;;;;;;5075191;28;20032;-74
2021/11/09 13:38:22;;;;;;;8.10;1.08;;;19.00;99.90;;;;;;5087632;28;20093;-71
2021/11/09 13:40:51;;;;;;;5.53;0.88;;;19.00;99.90;;;;;;5093538;28;20028;-73
2021/11/09 13:43:23;;;;;;;3.25;1.00;;;19.00;99.90;;;;;;5076805;28;20028;-73
2021/11/09 13:46:02;;;;;;;6.82;1.15;;;19.10;99.90;;;;;;5086647;28;20043;-73
2021/11/09 13:48:31;;;;;;;6.40;1.35;;;19.10;99.90;;;;;;5084626;28;20073;-72
2021/11/09 13:51:04;;;;;;;2.97;0.90;;;19.00;99.90;;;;;;5086090;28;20032;-73
2021/11/09 13:53:40;;;;;;;9.88;1.58;;;18.90;99.90;;;;;;5095143;28;20395;-72
2021/11/09 13:56:13;;;;;;;3.80;1.00;;;18.90;99.90;;;;;;5093296;28;20035;-72
2021/11/09 13:58:52;;;;;;;2.97;1.10;;;18.90;99.90;;;;;;5080479;28;20146;-73
2021/11/09 14:01:35;;;;;;;3.17;1.48;;;18.80;99.90;;;;;;5084002;28;20024;-73
2021/11/09 14:04:11;;;;;;;4.63;1.20;;;18.80;99.90;;;;;;5094819;28;20655;-73
2021/11/09 14:07:14;;;;;;;2.70;1.17;;;18.80;99.90;;;;;;5089516;28;20479;-73
2021/11/09 14:10:03;;;;;;;4.22;1.42;;;18.70;99.90;;;;;;5094826;28;20032;-72
2021/11/09 14:12:46;;;;;;;3.88;1.38;;;18.70;99.90;;;;;;5073569;28;20029;-73
2021/11/09 14:15:50;;;;;;;3.05;0.93;;;18.70;99.90;;;;;;5058247;28;20040;-73
2021/11/09 14:18:18;;;;;;;4.47;1.35;;;18.70;99.90;;;;;;5074257;28;20024;-72
2021/11/09 14:20:57;;;;;;;4.25;1.30;;;18.60;99.90;;;;;;5090365;28;20024;-73
2021/11/09 14:23:38;;;;;;;6.85;2.10;;;18.60;99.90;;;;;;5074770;28;20104;-73
2021/11/09 14:26:27;;;;;;;3.40;1.23;;;18.60;99.90;;;;;;5059078;28;20374;-73
2021/11/09 14:28:58;;;;;;;5.78;1.83;;;18.60;99.90;;;;;;5074398;28;20029;-73
2021/11/09 14:31:33;;;;;;;2.85;1.70;;;18.60;99.90;;;;;;5078228;28;20542;-73
2021/11/09 14:34:20;;;;;;;3.00;1.98;;;18.70;99.90;;;;;;5093039;28;20052;-73
2021/11/09 14:36:50;;;;;;;3.05;1.23;;;18.70;99.90;;;;;;5083767;28;20025;-73
2021/11/09 14:39:27;;;;;;;1.95;1.17;;;18.60;99.90;;;;;;5074206;28;20017;-73
2021/11/09 14:45:23;;;;;;;1.92;0.73;;;18.60;99.90;;;;;;5075282;28;20033;-74
2021/11/09 14:47:50;;;;;;;3.90;0.98;;;18.60;99.90;;;;;;5089193;28;20043;-74
2021/11/09 14:50:36;;;;;;;8.45;1.30;;;18.60;99.90;;;;;;5092527;28;20032;-74
2021/11/09 14:53:09;;;;;;;;;;;18.60;99.90;;;;;;5073451;28;20032;-73
2021/11/09 14:55:43;;;;;;;4.40;1.35;;;18.60;99.90;;;;;;5084276;28;20277;-74
2021/11/09 14:58:35;;;;;;;2.85;1.50;;;18.60;99.90;;;;;;5079162;28;20101;-73
2021/11/09 15:01:19;;;;;;;2.08;1.15;;;18.60;99.90;;;;;;5091211;28;20062;-74
2021/11/09 15:03:57;;;;;;;5.50;1.00;;;18.50;99.90;;;;;;5081362;28;20394;-72
2021/11/09 15:06:36;;;;;;;2.55;1.92;;;18.50;99.90;;;;;;5079242;28;20024;-74
2021/11/09 15:25:52;;;;;;;3.53;1.52;;;18.50;99.90;;;;;;5076702;28;20028;-72
2021/11/09 15:28:29;;;;;;;3.85;1.67;;;18.50;99.90;;;;;;5072825;28;20493;-73
2021/11/09 15:31:06;;;;;;;2.85;1.63;;;18.50;99.90;;;;;;5072797;28;20040;-74
2021/11/09 15:33:46;;;;;;;3.45;1.27;;;18.60;99.90;;;;;;5073629;28;20048;-72
2021/11/09 15:36:41;;;;;;;2.20;1.13;;;18.50;99.90;;;;;;5079686;28;20391;-73
2021/11/09 15:39:09;;;;;;;2.17;1.05;;;18.50;99.90;;;;;;5072682;28;20081;-73
2021/11/09 15:41:37;;;;;;;2.75;1.50;;;18.50;99.90;;;;;;5083940;28;20459;-72
2021/11/09 15:44:04;;;;;;;4.13;1.20;;;18.50;99.90;;;;;;5089302;28;20169;-72
2021/11/09 15:46:31;;;;;;;4.85;1.75;;;18.50;99.90;;;;;;5084568;28;20103;-73
2021/11/09 15:48:59;;;;;;;4.78;1.45;;;18.50;99.90;;;;;;5087177;28;20032;-73
2021/11/09 15:51:26;;;;;;;2.78;1.40;;;18.50;99.90;;;;;;5078216;28;20395;-73